Nina — ICMG — position and weather

sailwx.info

Track history (hours):
 
Tides and Currents Weather Stations Pressure Air Temp Water Temp Dewpoint Dewpoint Depression Visibility Wind Speed Wind Dir Waves Ship Positions

Nina

Last reported at 2015-Jan-12 02:30 UTC. Time now 2015-Jan-27 21:00 UTC.
Position N 35°50' W 123°32'.
Warning: this ship's position is 15 days out of date.

Length 180 m; draft 10.4 m.

Type: Tanker. MMSI: 247239700.

Date/timePositionNaut miles runAvg speedWind from/ knotsBaromVisibWave heightAir tempDewpointWater temp
2015-Jan-12 02:30N 35°50' W 123°32'1111.4
2015-Jan-12 01:33N 36°00' W 123°30'1211.6
2015-Jan-12 00:33N 36°12' W 123°27'1211.8
2015-Jan-11 23:30N 36°24' W 123°24'1511.6
2015-Jan-11 22:10N 36°39' W 123°20'811.5
2015-Jan-11 21:30N 36°46' W 123°18'1111.6
2015-Jan-11 20:31N 36°58' W 123°15'1111.8
2015-Jan-11 19:32N 37°09' W 123°13'1211.9
2015-Jan-11 18:33N 37°20' W 123°10'1211.9
2015-Jan-11 17:33N 37°32' W 123°07'1111.1
2015-Jan-11 16:33N 37°39' W 122°55'1110.9
2015-Jan-11 15:34N 37°44' W 122°43'1110.7
2015-Jan-11 14:33N 37°48' W 122°31'6 6.4
2015-Jan-11 13:34N 37°53' W 122°26'8 7.6
2015-Jan-11 12:33N 38°01' W 122°24'7 6.9
2015-Jan-11 11:33N 38°03' W 122°16'0 0.0
2015-Jan-11 07:32N 38°03' W 122°16'0 0.0
2015-Jan-11 06:26N 38°03' W 122°16'0 0.0
2015-Jan-11 05:32N 38°03' W 122°16'0 0.0
2015-Jan-11 04:32N 38°03' W 122°16'0 0.0
2015-Jan-11 03:14N 38°03' W 122°16'0 0.0
2015-Jan-11 02:26N 38°03' W 122°16'0 0.0
2015-Jan-10 22:14N 38°03' W 122°16'0 0.0
2015-Jan-10 21:32N 38°03' W 122°16'0 0.0
2015-Jan-10 20:26N 38°03' W 122°16'0 0.0
2015-Jan-10 19:26N 38°03' W 122°16'0 0.0
2015-Jan-10 18:26N 38°03' W 122°16'0 0.0
2015-Jan-10 17:26N 38°03' W 122°16'0 0.0
2015-Jan-10 15:32N 38°03' W 122°16'0 0.0
2015-Jan-10 14:32N 38°03' W 122°16'0 0.0
2015-Jan-10 13:32N 38°03' W 122°16'0 0.0
2015-Jan-10 09:14N 38°03' W 122°16'0 0.0
2015-Jan-10 08:26N 38°03' W 122°16'0 0.0
2015-Jan-10 07:26N 38°03' W 122°16'0 0.0
2015-Jan-10 06:20N 38°03' W 122°16'0 0.0
2015-Jan-10 05:32N 38°03' W 122°16'0 0.0
2015-Jan-10 04:32N 38°03' W 122°16'0 0.0
2015-Jan-10 02:26N 38°03' W 122°16'0 0.0
2015-Jan-09 20:32N 38°03' W 122°16'0 0.0
2015-Jan-09 19:32N 38°03' W 122°16'0 0.0
2015-Jan-09 18:32N 38°03' W 122°16'0 0.0
2015-Jan-09 16:26N 38°03' W 122°16'0 0.0
2015-Jan-09 15:08N 38°03' W 122°16'0 0.0
2015-Jan-09 14:26N 38°03' W 122°16'0 0.0
2015-Jan-09 13:32N 38°03' W 122°16'0 0.0
2015-Jan-09 12:32N 38°03' W 122°16'0 0.0
2015-Jan-09 11:32N 38°03' W 122°16'0 0.0
2015-Jan-09 10:32N 38°03' W 122°16'0 0.0
2015-Jan-09 09:32N 38°03' W 122°16'0 0.0
2015-Jan-09 08:32N 38°03' W 122°16'0 0.0
2015-Jan-09 07:32N 38°03' W 122°16'0 0.0
2015-Jan-09 05:26N 38°03' W 122°16'0 0.0
2015-Jan-09 04:26N 38°03' W 122°16'0 0.0
2015-Jan-09 03:26N 38°03' W 122°16'0 0.0
2015-Jan-09 02:32N 38°03' W 122°16'0 0.0
2015-Jan-09 01:32N 38°03' W 122°16'0 0.0
2015-Jan-09 00:20N 38°03' W 122°16'0 0.0
2015-Jan-08 22:32N 38°03' W 122°16'0 0.0
2015-Jan-08 21:32N 38°03' W 122°16'0 0.0
2015-Jan-08 20:33N 38°03' W 122°16'1 0.1
2015-Jan-08 13:28N 38°04' W 122°15'0 0.0
2015-Jan-08 12:28N 38°04' W 122°15'0 0.0
2015-Jan-08 11:22N 38°04' W 122°15'0 0.0
2015-Jan-08 10:28N 38°04' W 122°15'0 0.0
2015-Jan-08 09:31N 38°04' W 122°15'0 0.0
2015-Jan-08 08:25N 38°04' W 122°15'0 0.0
2015-Jan-08 07:28N 38°04' W 122°15'0 0.0
2015-Jan-08 06:04N 38°04' W 122°15'0 0.0
2015-Jan-08 05:31N 38°04' W 122°15'0 0.0
2015-Jan-08 04:04N 38°04' W 122°15'0 0.0
2015-Jan-08 03:31N 38°04' W 122°15'0 0.0
2015-Jan-07 20:28N 38°04' W 122°15'0 0.0
2015-Jan-07 19:28N 38°04' W 122°15'0 0.0
2015-Jan-07 18:22N 38°04' W 122°15'0 0.0
2015-Jan-07 17:31N 38°04' W 122°15'2 1.6
2015-Jan-07 16:33N 38°04' W 122°16'9 9.4
2015-Jan-07 15:33N 37°58' W 122°26'10 9.8
2015-Jan-07 14:33N 37°49' W 122°23'3 3.2
2015-Jan-07 13:31N 37°46' W 122°20'0 0.0
2015-Jan-07 12:31N 37°46' W 122°20'0 0.0
2015-Jan-07 11:33N 37°46' W 122°20'0 0.1
2015-Jan-07 10:33N 37°46' W 122°20'0 0.1
2015-Jan-07 09:33N 37°46' W 122°20'0 0.0
2015-Jan-07 08:31N 37°46' W 122°20'0 0.0
2015-Jan-07 07:31N 37°46' W 122°20'0 0.0
2015-Jan-07 06:31N 37°46' W 122°20'0 0.0
2015-Jan-07 05:33N 37°46' W 122°20'0 0.0
2015-Jan-07 04:31N 37°46' W 122°20'0 0.2
2015-Jan-07 03:33N 37°46' W 122°20'0 0.0
2015-Jan-07 02:33N 37°46' W 122°20'0 0.0
2015-Jan-07 01:34N 37°46' W 122°20'0 0.0
2015-Jan-07 00:33N 37°46' W 122°20'0 0.0
2015-Jan-06 23:31N 37°46' W 122°20'0 0.0
2015-Jan-06 22:33N 37°46' W 122°20'0 0.1
2015-Jan-06 21:33N 37°46' W 122°20'0 0.2
2015-Jan-06 20:33N 37°46' W 122°20'0 0.2
2015-Jan-06 19:33N 37°46' W 122°21'9 8.8
2015-Jan-06 18:33N 37°48' W 122°31'1110.5
2015-Jan-06 17:33N 37°43' W 122°43'8 7.9
2015-Jan-06 16:33N 37°38' W 122°51'8 8.1
2015-Jan-06 15:33N 37°34' W 122°60'8 7.6
2015-Jan-06 14:33N 37°27' W 123°05'10 9.8
2015-Jan-06 13:33N 37°18' W 123°07'1211.8
2015-Jan-06 12:33N 37°06' W 123°11'1212.2
2015-Jan-06 11:33N 36°55' W 123°14'3712.1
2015-Jan-06 08:31N 36°18' W 123°23'1212.2
2015-Jan-06 07:33N 36°07' W 123°27'1212.2
2015-Jan-06 06:33N 35°55' W 123°30'3410.5
2015-Jan-06 03:19N 35°22' W 123°39'3110.8
2015-Jan-06 00:28N 34°52' W 123°32'1111.5
2015-Jan-05 23:33N 34°42' W 123°25'1211.5
2015-Jan-05 22:30N 34°32' W 123°18'1111.7
2015-Jan-05 21:33N 34°22' W 123°12'2511.6
2015-Jan-05 19:23N 33°60' W 122°58'3511.8
2015-Jan-05 16:23N 33°29' W 122°38'1011.7
2015-Jan-05 15:33N 33°20' W 122°32'1010.0
2015-Jan-05 14:33N 33°11' W 122°27'1010.1
2015-Jan-05 13:33N 33°03' W 122°21'1010.1
2015-Jan-05 12:33N 32°54' W 122°15'1010.0
2015-Jan-05 11:33N 32°45' W 122°10'1010.0
2015-Jan-05 10:33N 32°36' W 122°04'1010.0
2015-Jan-05 09:33N 32°27' W 121°58'1010.2
2015-Jan-05 08:32N 32°18' W 121°52'1010.0
2015-Jan-05 07:33N 32°10' W 121°46'1110.2
2015-Jan-05 06:30N 32°02' W 121°38'1010.3
2015-Jan-05 05:33N 31°54' W 121°31'1110.3
2015-Jan-05 04:29N 31°45' W 121°22'1010.2
2015-Jan-05 03:28N 31°37' W 121°15'9 9.8
2015-Jan-05 02:33N 31°31' W 121°08'10 9.2
2015-Jan-05 01:30N 31°23' W 121°00'9 9.1
2015-Jan-05 00:33N 31°17' W 120°54'30 9.8
2015-Jan-04 21:29N 30°54' W 120°31'1010.1
2015-Jan-04 20:32N 30°46' W 120°24'68 9.6
2015-Jan-04 13:28N 29°54' W 119°34'  
Track history (hours):
 
Tides and Currents Weather Stations Pressure Air Temp Water Temp Dewpoint Dewpoint Depression Visibility Wind Speed Wind Dir Waves Ship Positions

Nina

Last reported at 2015-Jan-12 02:30 UTC. Time now 2015-Jan-27 21:00 UTC.
Position N 35°50' W 123°32'.
Warning: this ship's position is 15 days out of date.

Length 180 m; draft 10.4 m.

Type: Tanker. MMSI: 247239700.

Date/timePositionNaut miles runAvg speedWind from/ knotsBaromVisibWave heightAir tempDewpointWater temp
2015-Jan-12 02:30N 35°50' W 123°32'1111.4
2015-Jan-12 01:33N 36°00' W 123°30'1211.6
2015-Jan-12 00:33N 36°12' W 123°27'1211.8
2015-Jan-11 23:30N 36°24' W 123°24'1511.6
2015-Jan-11 22:10N 36°39' W 123°20'811.5
2015-Jan-11 21:30N 36°46' W 123°18'1111.6
2015-Jan-11 20:31N 36°58' W 123°15'1111.8
2015-Jan-11 19:32N 37°09' W 123°13'1211.9
2015-Jan-11 18:33N 37°20' W 123°10'1211.9
2015-Jan-11 17:33N 37°32' W 123°07'1111.1
2015-Jan-11 16:33N 37°39' W 122°55'1110.9
2015-Jan-11 15:34N 37°44' W 122°43'1110.7
2015-Jan-11 14:33N 37°48' W 122°31'6 6.4
2015-Jan-11 13:34N 37°53' W 122°26'8 7.6
2015-Jan-11 12:33N 38°01' W 122°24'7 6.9
2015-Jan-11 11:33N 38°03' W 122°16'0 0.0
2015-Jan-11 07:32N 38°03' W 122°16'0 0.0
2015-Jan-11 06:26N 38°03' W 122°16'0 0.0
2015-Jan-11 05:32N 38°03' W 122°16'0 0.0
2015-Jan-11 04:32N 38°03' W 122°16'0 0.0
2015-Jan-11 03:14N 38°03' W 122°16'0 0.0
2015-Jan-11 02:26N 38°03' W 122°16'0 0.0
2015-Jan-10 22:14N 38°03' W 122°16'0 0.0
2015-Jan-10 21:32N 38°03' W 122°16'0 0.0
2015-Jan-10 20:26N 38°03' W 122°16'0 0.0
2015-Jan-10 19:26N 38°03' W 122°16'0 0.0
2015-Jan-10 18:26N 38°03' W 122°16'0 0.0
2015-Jan-10 17:26N 38°03' W 122°16'0 0.0
2015-Jan-10 15:32N 38°03' W 122°16'0 0.0
2015-Jan-10 14:32N 38°03' W 122°16'0 0.0
2015-Jan-10 13:32N 38°03' W 122°16'0 0.0
2015-Jan-10 09:14N 38°03' W 122°16'0 0.0
2015-Jan-10 08:26N 38°03' W 122°16'0 0.0
2015-Jan-10 07:26N 38°03' W 122°16'0 0.0
2015-Jan-10 06:20N 38°03' W 122°16'0 0.0
2015-Jan-10 05:32N 38°03' W 122°16'0 0.0
2015-Jan-10 04:32N 38°03' W 122°16'0 0.0
2015-Jan-10 02:26N 38°03' W 122°16'0 0.0
2015-Jan-09 20:32N 38°03' W 122°16'0 0.0
2015-Jan-09 19:32N 38°03' W 122°16'0 0.0
2015-Jan-09 18:32N 38°03' W 122°16'0 0.0
2015-Jan-09 16:26N 38°03' W 122°16'0 0.0
2015-Jan-09 15:08N 38°03' W 122°16'0 0.0
2015-Jan-09 14:26N 38°03' W 122°16'0 0.0
2015-Jan-09 13:32N 38°03' W 122°16'0 0.0
2015-Jan-09 12:32N 38°03' W 122°16'0 0.0
2015-Jan-09 11:32N 38°03' W 122°16'0 0.0
2015-Jan-09 10:32N 38°03' W 122°16'0 0.0
2015-Jan-09 09:32N 38°03' W 122°16'0 0.0
2015-Jan-09 08:32N 38°03' W 122°16'0 0.0
2015-Jan-09 07:32N 38°03' W 122°16'0 0.0
2015-Jan-09 05:26N 38°03' W 122°16'0 0.0
2015-Jan-09 04:26N 38°03' W 122°16'0 0.0
2015-Jan-09 03:26N 38°03' W 122°16'0 0.0
2015-Jan-09 02:32N 38°03' W 122°16'0 0.0
2015-Jan-09 01:32N 38°03' W 122°16'0 0.0
2015-Jan-09 00:20N 38°03' W 122°16'0 0.0
2015-Jan-08 22:32N 38°03' W 122°16'0 0.0
2015-Jan-08 21:32N 38°03' W 122°16'0 0.0
2015-Jan-08 20:33N 38°03' W 122°16'1 0.1
2015-Jan-08 13:28N 38°04' W 122°15'0 0.0
2015-Jan-08 12:28N 38°04' W 122°15'0 0.0
2015-Jan-08 11:22N 38°04' W 122°15'0 0.0
2015-Jan-08 10:28N 38°04' W 122°15'0 0.0
2015-Jan-08 09:31N 38°04' W 122°15'0 0.0
2015-Jan-08 08:25N 38°04' W 122°15'0 0.0
2015-Jan-08 07:28N 38°04' W 122°15'0 0.0
2015-Jan-08 06:04N 38°04' W 122°15'0 0.0
2015-Jan-08 05:31N 38°04' W 122°15'0 0.0
2015-Jan-08 04:04N 38°04' W 122°15'0 0.0
2015-Jan-08 03:31N 38°04' W 122°15'0 0.0
2015-Jan-07 20:28N 38°04' W 122°15'0 0.0
2015-Jan-07 19:28N 38°04' W 122°15'0 0.0
2015-Jan-07 18:22N 38°04' W 122°15'0 0.0
2015-Jan-07 17:31N 38°04' W 122°15'2 1.6
2015-Jan-07 16:33N 38°04' W 122°16'9 9.4
2015-Jan-07 15:33N 37°58' W 122°26'10 9.8
2015-Jan-07 14:33N 37°49' W 122°23'3 3.2
2015-Jan-07 13:31N 37°46' W 122°20'0 0.0
2015-Jan-07 12:31N 37°46' W 122°20'0 0.0
2015-Jan-07 11:33N 37°46' W 122°20'0 0.1
2015-Jan-07 10:33N 37°46' W 122°20'0 0.1
2015-Jan-07 09:33N 37°46' W 122°20'0 0.0
2015-Jan-07 08:31N 37°46' W 122°20'0 0.0
2015-Jan-07 07:31N 37°46' W 122°20'0 0.0
2015-Jan-07 06:31N 37°46' W 122°20'0 0.0
2015-Jan-07 05:33N 37°46' W 122°20'0 0.0
2015-Jan-07 04:31N 37°46' W 122°20'0 0.2
2015-Jan-07 03:33N 37°46' W 122°20'0 0.0
2015-Jan-07 02:33N 37°46' W 122°20'0 0.0
2015-Jan-07 01:34N 37°46' W 122°20'0 0.0
2015-Jan-07 00:33N 37°46' W 122°20'0 0.0
2015-Jan-06 23:31N 37°46' W 122°20'0 0.0
2015-Jan-06 22:33N 37°46' W 122°20'0 0.1
2015-Jan-06 21:33N 37°46' W 122°20'0 0.2
2015-Jan-06 20:33N 37°46' W 122°20'0 0.2
2015-Jan-06 19:33N 37°46' W 122°21'9 8.8
2015-Jan-06 18:33N 37°48' W 122°31'1110.5
2015-Jan-06 17:33N 37°43' W 122°43'8 7.9
2015-Jan-06 16:33N 37°38' W 122°51'8 8.1
2015-Jan-06 15:33N 37°34' W 122°60'8 7.6
2015-Jan-06 14:33N 37°27' W 123°05'10 9.8
2015-Jan-06 13:33N 37°18' W 123°07'1211.8
2015-Jan-06 12:33N 37°06' W 123°11'1212.2
2015-Jan-06 11:33N 36°55' W 123°14'3712.1
2015-Jan-06 08:31N 36°18' W 123°23'1212.2
2015-Jan-06 07:33N 36°07' W 123°27'1212.2
2015-Jan-06 06:33N 35°55' W 123°30'3410.5
2015-Jan-06 03:19N 35°22' W 123°39'3110.8
2015-Jan-06 00:28N 34°52' W 123°32'1111.5
2015-Jan-05 23:33N 34°42' W 123°25'1211.5
2015-Jan-05 22:30N 34°32' W 123°18'1111.7
2015-Jan-05 21:33N 34°22' W 123°12'2511.6
2015-Jan-05 19:23N 33°60' W 122°58'3511.8
2015-Jan-05 16:23N 33°29' W 122°38'1011.7
2015-Jan-05 15:33N 33°20' W 122°32'1010.0
2015-Jan-05 14:33N 33°11' W 122°27'1010.1
2015-Jan-05 13:33N 33°03' W 122°21'1010.1
2015-Jan-05 12:33N 32°54' W 122°15'1010.0
2015-Jan-05 11:33N 32°45' W 122°10'1010.0
2015-Jan-05 10:33N 32°36' W 122°04'1010.0
2015-Jan-05 09:33N 32°27' W 121°58'1010.2
2015-Jan-05 08:32N 32°18' W 121°52'1010.0
2015-Jan-05 07:33N 32°10' W 121°46'1110.2
2015-Jan-05 06:30N 32°02' W 121°38'1010.3
2015-Jan-05 05:33N 31°54' W 121°31'1110.3
2015-Jan-05 04:29N 31°45' W 121°22'1010.2
2015-Jan-05 03:28N 31°37' W 121°15'9 9.8
2015-Jan-05 02:33N 31°31' W 121°08'10 9.2
2015-Jan-05 01:30N 31°23' W 121°00'9 9.1
2015-Jan-05 00:33N 31°17' W 120°54'30 9.8
2015-Jan-04 21:29N 30°54' W 120°31'1010.1
2015-Jan-04 20:32N 30°46' W 120°24'68 9.6
2015-Jan-04 13:28N 29°54' W 119°34'  

Dump ship's entire track history